x

9439040 - Astoria, Or (asto3) Weather Station

9:54 - Sat 27th Dec 2014 All times are PST. -8 hours from GMT.

  • Wind
    2mph, 10mph gusts
  • Sea Temp 47°f
  • Air Temp 48°f
  • Sea Pressure 1022.6mb
  • 9439040 - Astoria, Or
  • 9439040 - Astoria, Or

More Historic Weather Station data

Upgrade to MSW Pro to gain access to the past 30 days of data for over 8000 Wavebouys and Weather Stations around the globe.

Join Pro

Comparision Forecast

View Surf forecast
   
sam. 12/27 9:54 2 10 mph 1022.6mb 47f 48f
9:48 3 9 mph 1022.5mb 47f 47f
9:42 2 7 mph 1022.6mb 47f 48f
9:36 3 11 mph 1022.7mb 47f 48f
9:30 2 7 mph 1022.8mb 47f 48f
9:24 5 14 mph 1022.6mb 47f 48f
9:18 7 13 mph 1022.6mb 47f 48f
9:12 2 6 mph 1022.5mb 47f 49f
9:06 2 13 mph 1022.5mb 47f 49f
9:00 3 11 mph 1022.5mb 47f 49f
8:54 3 10 mph 1022.6mb 47f 49f
8:48  -  mph - - 49f
8:42  -  mph - - 49f
8:36  -  mph - - 49f
8:30 3 9 mph 1022.6mb 47f 49f
8:24 2 11 mph 1022.6mb 47f 48f
8:18 2 9 mph 1022.5mb 47f 48f
8:12 2 7 mph 1022.5mb 47f 49f
8:06 2 7 mph 1022.5mb 47f 49f
8:00 2 6 mph 1022.4mb 47f 49f
7:54 2 8 mph 1022.4mb 47f 49f
7:48 2 11 mph 1022.4mb 47f 49f
7:42 3 9 mph 1022.4mb 47f 49f
7:36 3 9 mph 1022.4mb 47f 49f
7:30 6 10 mph 1022.3mb 47f 49f
7:24 2 11 mph 1022.4mb 47f 49f
7:18 5 10 mph 1022.5mb 47f 49f
7:12 6 10 mph 1022.5mb 47f 49f
7:06 5 8 mph 1022.6mb 47f 48f
7:00 3 11 mph 1022.5mb 47f 48f
6:54 6 13 mph 1022.5mb 47f 48f
6:48 3 9 mph 1022.7mb 47f 48f
6:42 2 14 mph 1022.7mb 47f 48f
6:36 13 17 mph 1022.9mb 47f 48f
6:30 6 13 mph 1023mb 47f 49f
6:24 6 9 mph 1022.9mb 47f 49f
6:18 1 5 mph 1022.9mb 47f 48f
6:12 2 5 mph 1022.9mb 47f 48f
6:06 1 5 mph 1022.9mb 47f 48f
6:00 5 8 mph 1023mb 47f 48f
5:54 3 9 mph 1023.1mb 47f 48f
5:48 1 3 mph 1023.1mb 47f 48f
5:42 1 5 mph 1023mb 47f 48f
5:36 1 3 mph 1023.1mb 47f 48f
5:30 2 6 mph 1023.1mb 47f 48f
5:24 5 10 mph 1023.1mb 47f 48f
5:18 8 14 mph 1023mb 47f 48f
5:12 9 14 mph 1023mb 47f 48f
5:00 13 17 mph 1023mb 47f 49f
4:54 10 16 mph 1022.9mb 47f 49f
4:48 11 20 mph 1022.9mb 47f 49f
4:42 9 14 mph 1022.9mb 47f 49f
4:36 3 7 mph 1022.7mb 47f 48f
4:30 5 14 mph 1022.6mb 47f 48f
4:24 6 16 mph 1022.6mb 47f 48f
4:18 8 16 mph 1022.6mb 47f 49f
4:12 11 21 mph 1022.5mb 47f 49f
4:06 10 21 mph 1022.5mb 47f 49f
4:00 5 17 mph 1022.4mb 47f 48f
3:54 9 21 mph 1022.4mb 47f 49f
3:48 14 20 mph 1022.3mb 47f 48f
3:42 2 7 mph 1022.4mb 47f 48f
3:36 5 13 mph 1022.2mb 47f 48f
3:30 5 11 mph 1022.2mb 47f 48f
3:24 3 11 mph 1022.2mb 47f 48f
3:18 2 5 mph 1022.3mb 47f 48f
3:12 3 20 mph 1022.3mb 47f 48f
3:06 5 7 mph 1022.3mb 47f 48f
3:00 2 10 mph 1022.3mb 47f 49f
2:54 7 17 mph 1022.2mb 47f 49f
2:48 7 14 mph 1022.2mb 47f 48f
2:42 5 15 mph 1022.4mb 47f 48f
2:36 9 14 mph 1022.2mb 47f 49f
2:30 9 15 mph 1022.2mb 47f 49f
2:24 11 15 mph 1022.1mb 47f 49f
2:18 10 14 mph 1022.2mb 47f 49f
2:06 10 14 mph 1022.2mb 47f 49f
2:00 10 14 mph 1022.3mb 47f 49f
1:54 9 15 mph 1022.3mb 47f 49f
1:48 10 14 mph 1022.3mb 47f 49f
1:42 11 14 mph 1022.2mb 47f 49f
1:36 9 13 mph 1022.3mb 47f 48f
1:30 8 10 mph 1022.3mb 47f 48f
1:24 6 7 mph 1022.5mb 47f 48f
1:18 5 8 mph 1022.7mb 47f 48f
1:12 3 6 mph 1022.7mb 47f 48f
1:06 1 5 mph 1022.9mb 47f 48f
1:00  -  7 mph 1022.8mb 47f 48f
12:54 6 11 mph 1022.9mb 47f 48f
12:48 5 10 mph 1022.9mb 47f 48f
12:42 8 13 mph 1022.8mb 47f 48f
12:36 5 11 mph 1022.7mb 47f 48f
12:30 2 7 mph 1022.8mb 47f 48f
12:24 10 18 mph 1022.6mb 47f 49f
12:18 13 22 mph 1022.5mb 47f 49f
12:12 9 14 mph 1022.6mb 47f 49f
12:06 10 14 mph 1022.7mb 47f 49f
12:00 13 15 mph 1022.9mb 47f 49f
11:54 11 16 mph 1023.1mb 47f 49f
11:48 11 16 mph 1023.3mb 47f 49f
11:42 11 17 mph 1023.4mb 47f 49f
11:36 14 20 mph 1023.4mb 47f 49f
11:30 13 16 mph 1023.5mb 47f 49f
11:24 14 20 mph 1023.6mb 47f 49f
11:18 14 22 mph 1023.7mb 47f 49f
11:12 14 18 mph 1023.8mb 47f 49f
11:06 13 18 mph 1023.9mb 47f 49f
11:00 14 20 mph 1024mb 47f 49f
10:54 15 18 mph 1024.1mb 47f 49f
10:48 9 15 mph 1024.3mb 47f 48f
10:42 6 10 mph 1024.4mb 47f 49f
10:36 3 11 mph 1024.4mb 47f 49f
10:30 5 11 mph 1024.4mb 47f 49f
10:24 6 11 mph 1024.3mb 47f 49f
10:18 5 10 mph 1024.2mb 47f 49f
10:12 3 8 mph 1024.2mb 47f 49f
10:06 3 7 mph 1024.1mb 47f 49f
10:00 2 7 mph 1024.2mb 47f 49f
9:54 6 11 mph 1024.1mb 47f 49f
9:48 7 10 mph 1024.1mb 47f 49f
9:42 6 10 mph 1024mb 47f 49f
9:36 6 10 mph 1024mb 47f 49f
9:30 7 10 mph 1024mb 47f 49f
9:24 7 9 mph 1023.9mb 47f 49f
9:18 7 10 mph 1023.9mb 47f 49f
9:12 7 11 mph 1023.8mb 47f 49f
9:06 7 10 mph 1023.8mb 47f 49f
9:00 6 8 mph 1023.7mb 47f 48f
8:54 3 8 mph 1023.8mb 47f 48f
8:48 2 7 mph 1023.7mb 47f 48f
8:42 2 6 mph 1023.8mb 47f 48f
8:36 1 5 mph 1023.8mb 47f 48f
8:30 2 8 mph 1024mb 47f 48f
8:24 1 7 mph 1023.9mb 47f 49f
8:18  -  2 mph 1023.6mb 47f 48f
8:12  -  2 mph 1023.6mb 47f 48f
8:06 1 2 mph 1023.6mb 47f 48f
8:00 1 2 mph 1023.6mb 47f 48f
7:54 2
mph
1023.5mb 47f 47f
7:48 2 5 mph 1023.5mb 47f 47f
7:42 5 6 mph 1023.5mb 47f 47f
7:36 2
mph
1023.6mb 47f 48f
7:30 2 3 mph 1023.6mb 47f 47f
7:24 2 3 mph 1023.7mb 47f 47f
7:18 3
mph
1023.8mb 47f 47f
7:12 2 3 mph 1023.9mb 47f 47f
7:06 2 5 mph 1024mb 47f 47f
7:00 1 3 mph 1024.1mb 47f 46f
6:54 2 5 mph 1024.1mb 47f 46f
6:48 3 5 mph 1024.1mb 47f 46f
6:42 5 6 mph 1024mb 47f 46f
6:30 5 7 mph 1024mb 47f 46f
6:24 7
mph
1024.1mb 47f 46f
6:18 5
mph
1024.1mb 47f 46f
6:06 5 6 mph 1024.3mb 47f 46f
6:00 1 6 mph 1024.4mb 47f 46f
5:54 5 6 mph 1024.4mb 47f 45f
5:48 3 5 mph 1024.5mb 47f 45f
5:42 3 6 mph 1024.6mb 47f 45f
5:36 5 6 mph 1024.6mb 47f 45f
5:30 3 6 mph 1024.6mb 47f 45f
5:24 5 6 mph 1024.7mb 47f 45f
5:18 3 6 mph 1024.8mb 47f 45f
5:12 6
mph
1024.9mb 47f 45f
5:06 5 6 mph 1025mb 47f 45f
5:00 3 5 mph 1025mb 47f 45f
4:54 5 7 mph 1025.1mb 47f 45f
4:48 6 7 mph 1025.1mb 47f 45f
4:42 6 7 mph 1025.1mb 47f 45f
4:36 5 6 mph 1025.2mb 47f 45f
4:30 3 7 mph 1025.4mb 47f 45f
4:24 5 7 mph 1025.5mb 47f 46f
4:18 3 9 mph 1025.5mb 47f 45f
4:12 5 9 mph 1025.6mb 47f 45f
4:06 7 10 mph 1025.6mb 47f 45f
4:00 6 8 mph 1025.7mb 47f 45f
3:54 2 7 mph 1025.8mb 47f 45f
3:48 5
mph
1026mb 47f 45f
3:42  -  3 mph 1026.1mb 47f 45f
3:36 2 3 mph 1026.2mb 47f 45f
3:30  -  3 mph 1026.2mb 47f 45f
3:24 1 6 mph 1026.3mb 47f 45f
3:18 1 6 mph 1026.2mb 47f 45f
3:12 3 8 mph 1026.2mb 47f 45f
3:06 3 8 mph 1026.2mb 47f 45f
3:00 6 9 mph 1026.2mb 47f 45f
2:54 5 7 mph 1026.2mb 47f 45f
2:48 5 6 mph 1026.3mb 47f 45f
2:42 2 6 mph 1026.3mb 47f 45f
2:36 2 7 mph 1026.4mb 47f 45f
2:30 3 8 mph 1026.4mb 47f 45f
2:24 3 7 mph 1026.4mb 47f 45f
2:18 3 10 mph 1026.4mb 47f 45f
2:12 5 8 mph 1026.3mb 47f 45f
2:06 5 10 mph 1026.2mb 47f 45f
2:00 5 9 mph 1026.2mb 47f 45f
1:54 6 9 mph 1026.3mb 47f 45f
1:48 5 10 mph 1026.4mb 47f 45f
1:42 5 9 mph 1026.4mb 47f 45f
1:36 2 6 mph 1026.5mb 47f 45f
1:30 1 6 mph 1026.6mb 47f 45f
1:24 1 6 mph 1026.6mb 47f 45f
1:18 2 6 mph 1026.8mb 47f 45f
1:12 1 3 mph 1026.8mb 47f 45f
1:06 2 6 mph 1026.8mb 47f 45f
1:00 1 5 mph 1026.8mb 47f 45f
12:54 2 6 mph 1026.9mb 47f 45f
12:48 1 5 mph 1026.9mb 47f 45f
12:42 2 6 mph 1026.9mb 47f 45f
12:36 1 2 mph 1027mb 47f 45f
12:30 2 3 mph 1027mb 47f 45f
12:24 2 3 mph 1027.1mb 47f 45f
12:18 1 5 mph 1027.1mb 47f 45f
12:12 2 5 mph 1027.2mb 47f 45f
12:06 1 5 mph 1027.3mb 47f 45f
12:00 1 6 mph 1027.3mb 47f 45f
ven. 12/26 11:54 5 7 mph 1027.4mb 47f 45f
11:48 2 7 mph 1027.5mb 47f 45f
11:42 5 6 mph 1027.5mb 47f 45f
11:36 5 6 mph 1027.5mb 47f 45f
11:30 3 5 mph 1027.5mb 47f 45f
11:24 5 7 mph 1027.6mb 47f 45f
11:18 5 8 mph 1027.6mb 47f 45f
11:12 2 6 mph 1027.6mb 47f 45f
11:06 3 7 mph 1027.7mb 47f 45f
11:00 3 6 mph 1027.7mb 47f 45f
10:54 2 7 mph 1027.8mb 47f 45f
10:48 5 9 mph 1027.8mb 47f 45f
10:42 6 8 mph 1027.8mb 47f 45f
10:36 6 8 mph 1027.8mb 47f 45f
10:30 6 7 mph 1027.8mb 47f 45f
10:24 5 7 mph 1027.8mb 47f 45f
10:18 5 6 mph 1027.8mb 47f 45f
10:12 2 6 mph 1027.8mb 47f 45f
10:06 3 7 mph 1027.8mb 47f 45f
10:00 5 7 mph 1027.8mb 47f 45f
9:54 5 8 mph 1027.8mb 47f 45f
9:48 5 8 mph 1027.7mb 47f 45f
9:42 6 8 mph 1027.7mb 47f 45f
9:36 6 8 mph 1027.8mb 47f 45f
9:30 6 8 mph 1027.8mb 47f 45f
9:24 5 8 mph 1027.9mb 47f 45f
9:18 6 7 mph 1027.9mb 47f 45f
9:12 6 7 mph 1028mb 47f 45f
9:06 3 7 mph 1027.9mb 47f 45f
9:00 5 7 mph 1028mb 47f 45f
8:54 3 8 mph 1027.9mb 47f 45f
8:48 5 8 mph 1027.8mb 47f 45f
8:42 3 7 mph 1027.8mb 47f 45f
8:36 6
mph
1027.9mb 47f 45f
8:30 3 7 mph 1027.9mb 47f 45f
8:24 3 6 mph 1027.9mb 47f 45f
8:18 2 3 mph 1027.9mb 47f 45f
8:12 1 5 mph 1027.9mb 47f 45f
8:06 3 6 mph 1027.9mb 47f 45f
8:00 2 6 mph 1027.8mb 47f 45f
7:54 3 6 mph 1027.9mb 47f 45f
7:48 3 6 mph 1027.9mb 47f 45f
7:42 3 6 mph 1027.9mb 47f 45f
7:36 2 5 mph 1027.7mb 47f 46f
7:30 1 5 mph 1027.8mb 47f 46f
7:24 3 5 mph 1027.8mb 47f 45f
7:18 1 5 mph 1027.9mb 47f 46f
7:12 1 3 mph 1027.8mb 47f 46f
7:06 2 3 mph 1027.8mb 47f 46f
7:00 1 5 mph 1027.8mb 47f 46f
6:54 2 7 mph 1027.8mb 47f 46f
6:48 2 6 mph 1027.8mb 47f 46f
6:42 1 3 mph 1027.7mb 47f 46f
6:36 2 6 mph 1027.7mb 47f 46f
6:30 2 3 mph 1027.7mb 47f 46f
6:24 2 6 mph 1027.7mb 47f 46f
6:18 2 5 mph 1027.9mb 47f 46f
6:12 3 5 mph 1027.9mb 47f 46f
6:06 2 5 mph 1027.9mb 47f 46f
6:00  -  3 mph 1027.9mb 47f 46f
5:54 2 6 mph 1028.1mb 47f 46f
5:48 6 7 mph - 47f 46f
5:42 6 8 mph - 47f 46f
5:36 6 8 mph - 47f 46f
5:30 6 8 mph 1028mb 47f 46f
5:24 5 8 mph 1027.9mb 47f 46f
5:18 6 8 mph 1028mb 47f 46f
5:12 2 6 mph 1027.8mb 47f 46f
5:06 6 8 mph 1027.9mb 47f 46f
5:00 5 7 mph 1027.8mb 47f 46f
4:54 2 6 mph 1027.8mb 47f 46f
4:48 5 9 mph 1027.7mb 47f 46f
4:42 5 7 mph 1027.6mb 47f 46f
4:36 5 7 mph 1027.7mb 47f 46f
4:24 5 8 mph 1027.6mb 47f 47f
4:18 7 9 mph 1027.5mb 47f 47f
4:06 5 8 mph 1027.4mb 47f 47f
4:00 5 8 mph 1027.5mb 47f 47f
3:54 3 9 mph 1027.5mb 47f 47f
3:48 5 8 mph 1027.5mb 47f 47f
3:42 5 7 mph 1027.4mb 47f 47f
3:36 5 9 mph 1027.5mb 47f 47f
3:30 7 8 mph 1027.4mb 47f 47f
3:24 7 9 mph 1027.4mb 47f 47f
3:18 6 8 mph 1027.4mb 47f 47f
3:12 5 8 mph 1027.3mb 47f 47f
3:06 6 8 mph 1027.3mb 47f 48f
3:00 6 8 mph 1027.3mb 47f 48f
2:48 5 7 mph 1027.3mb 47f 47f
2:42 3 8 mph 1027.2mb 47f 47f
2:36 6 11 mph 1027.3mb 47f 47f
2:30 5 9 mph 1027.3mb 47f 47f
2:24 6 8 mph 1027.3mb 47f 47f
2:18 5 6 mph 1027.2mb 47f 48f
2:12 5 7 mph 1027.3mb 47f 48f
2:06 5 7 mph 1027.3mb 47f 48f
2:00 3 7 mph 1027.3mb 47f 48f
1:54 2 8 mph 1027.2mb 47f 48f
1:48 5 9 mph 1027.2mb 47f 48f
1:42 5 7 mph 1027.2mb 47f 47f
1:36 5 8 mph 1027.3mb 47f 47f
1:30 3 8 mph 1027.3mb 47f 47f
1:24 5 7 mph 1027.3mb 47f 48f
1:12 3 7 mph 1027.2mb 47f 48f
1:06 3 8 mph 1027.3mb 47f 48f
1:00 3 6 mph 1027.4mb 47f 47f
12:54 1 8 mph 1027.5mb 47f 48f
12:48  -  mph 1027.5mb 47f 47f
12:42  -  mph 1027.7mb 47f 47f
12:36  -  mph 1027.9mb 47f 47f
12:30 2 6 mph 1027.9mb 47f 47f
12:24 3 6 mph 1028mb 47f 47f
12:18 2 5 mph 1028mb 47f 47f
12:06 5 8 mph 1028.1mb 47f 47f
12:00 6 11 mph 1028.1mb 47f 47f
11:54 6 9 mph 1028.1mb 47f 47f
11:48 5 9 mph 1028.2mb 47f 47f
11:42 6 10 mph 1028.3mb 47f 46f
11:36 7 10 mph 1028.3mb 47f 47f
11:30 6 8 mph 1028.4mb 47f 46f
11:24 6 10 mph 1028.4mb 47f 46f
11:18 5 7 mph 1028.4mb 47f 46f
11:12 5 7 mph 1028.5mb 47f 46f
11:06 2 6 mph 1028.6mb 47f 46f
11:00 3 6 mph 1028.6mb 47f 46f
10:54 5 9 mph 1028.6mb 47f 46f
10:48 5 9 mph 1028.6mb 47f 46f
10:42 6 10 mph 1028.6mb 47f 46f
10:36 3 6 mph 1028.7mb 47f 46f
10:30 5 6 mph 1028.7mb 47f 45f
10:24 3 6 mph 1028.7mb 47f 45f
10:18 5 6 mph 1028.7mb 47f 45f
10:12 6 8 mph 1028.6mb 47f 44f
10:06 6 8 mph 1028.7mb 47f 44f
10:00 6 7 mph 1028.6mb 47f 44f
9:54 6 8 mph 1028.6mb 47f 44f
9:48 6 8 mph 1028.6mb 47f 44f
9:42 6 8 mph 1028.5mb 47f 44f
9:36 6 8 mph 1028.5mb 47f 44f
9:30 2 3 mph 1028.5mb 47f 44f
9:24 2 5 mph 1028.4mb 47f 44f
9:18 3 6 mph 1028.4mb 47f 44f
9:12 5 7 mph 1028.3mb 47f 44f
9:06 5 6 mph 1028.3mb 47f 44f
9:00 5 7 mph 1028.1mb 47f 44f
8:54 6 7 mph 1028.1mb 47f 44f
8:48 6 8 mph 1028mb 47f 44f
8:42 3 6 mph 1028mb 47f 44f
8:36 2 3 mph 1028mb 47f 44f
8:30 3 6 mph 1028mb 46f 44f
8:24 1 2 mph 1028mb 46f 44f
8:18 1 2 mph 1027.9mb 46f 44f
8:12  -  2 mph 1027.9mb 46f 44f
8:06 2 5 mph 1027.8mb 46f 44f
8:00 2 3 mph 1027.8mb 46f 44f
7:54 1 3 mph 1027.7mb 47f 43f
7:48 2 3 mph 1027.6mb 47f 44f
7:42 2 5 mph 1027.5mb 47f 44f
7:36 3 5 mph 1027.5mb 47f 44f
7:30 1 5 mph 1027.4mb 47f 44f
7:24 1 5 mph 1027.4mb 47f 44f
7:18 5 7 mph 1027.4mb 47f 44f
7:12 3 6 mph 1027.3mb 47f 44f
7:06 2 3 mph 1027.3mb 47f 44f
7:00 1 2 mph 1027.3mb 47f 44f
6:54  -  6 mph 1027.4mb 47f 44f
6:48 6 8 mph 1027.4mb 47f 44f
6:42 3 5 mph 1027.4mb 47f 44f
6:36 2 6 mph 1027.4mb 47f 44f
6:30 2 3 mph 1027.3mb 47f 44f
6:24 1 3 mph 1027.3mb 47f 44f
6:18 1 2 mph 1027.3mb 47f 44f
6:12  -  3 mph 1027.3mb 47f 44f
6:06 2
mph
1027.3mb 47f 44f
6:00 1 2 mph 1027.3mb 47f 44f
5:54 1 6 mph 1027.3mb 47f 44f
5:48 3 6 mph 1027.3mb 46f 44f
5:42 3 5 mph 1027.3mb 46f 44f
5:36  -  2 mph 1027.3mb 46f 44f
5:30  -  2 mph 1027.3mb 46f 44f
5:24 1 2 mph 1027.3mb 46f 44f
5:18  -  2 mph 1027.2mb 46f 44f
5:12 1 3 mph 1027.2mb 47f 43f
5:06 2 3 mph 1027.1mb 47f 44f
4:48 2 6 mph 1027.1mb 47f 44f
4:42  -  2 mph 1027.1mb 46f 43f
4:36 2 6 mph 1027.1mb 46f 43f
4:30  -  2 mph 1027.1mb 46f 43f
4:24 1 2 mph 1027.1mb 46f 43f
4:18 1 2 mph 1027.1mb 46f 43f
4:12 2 6 mph 1027.1mb 46f 43f
4:06 1 2 mph 1027.2mb 46f 43f
4:00  -  1 mph 1027.2mb 46f 43f
3:54  -  1 mph 1027.2mb 46f 43f
3:48  -  1 mph 1027.2mb 46f 43f
3:42  -  1 mph 1027.2mb 46f 43f
3:36  -  2 mph 1027.1mb 46f 43f
3:30 2 5 mph 1027.1mb 46f 43f
3:24 3 5 mph 1027.1mb 46f 43f
3:18 2 3 mph 1027.2mb 46f 43f
3:12 1 6 mph 1027.1mb 46f 43f
3:06 5 7 mph 1027mb 46f 43f
3:00 5 6 mph 1027mb 46f 43f
2:54 6 8 mph 1026.9mb 46f 43f
2:48 6
mph
1026.8mb 46f 43f
2:42 3 6 mph 1026.8mb 46f 43f
2:36 6 7 mph 1026.9mb 46f 43f
2:30 5 7 mph 1026.9mb 46f 43f
2:24 6 7 mph 1026.8mb 46f 43f
2:18 5 6 mph 1026.8mb 46f 43f
2:12 2 6 mph 1026.8mb 46f 43f
2:06 5 6 mph 1026.7mb 46f 43f
2:00 2 6 mph 1026.7mb 46f 43f
1:54 1 2 mph 1026.5mb 46f 43f
1:48  -  2 mph 1026.5mb 46f 43f
1:42 2
mph
1026.4mb 46f 43f
1:36  -  2 mph 1026.3mb 46f 43f
1:30  -  2 mph 1026.2mb 46f 43f
1:24  -  1 mph 1026.1mb 46f 43f
1:18  -  3 mph 1026mb 46f 43f
1:12 2
mph
1026mb 47f 43f
1:06 2 3 mph 1026mb 47f 43f
1:00 2
mph
1025.9mb 47f 43f
12:54 2 3 mph 1025.9mb 47f 43f
12:48 5
mph
1025.9mb 47f 43f
12:42 5 6 mph 1025.9mb 47f 43f
12:36 5 6 mph 1025.9mb 47f 43f
12:30 3 5 mph 1026mb 47f 43f
12:24 2 3 mph 1026mb 47f 43f
12:18 2
mph
1026mb 47f 44f
12:12  -  1 mph 1026.1mb 46f 43f
12:06  -  1 mph 1026.1mb 46f 43f
12:00 1 3 mph 1026mb 46f 43f
jeu. 12/25 11:54 1 3 mph 1026mb 46f 43f
11:48 2
mph
1026.1mb 46f 44f
11:42  -  2 mph 1026.2mb 46f 43f
11:36 2 3 mph 1026.2mb 46f 43f
11:30 1 2 mph 1026.3mb 46f 43f
11:24 2
mph
1026.4mb 46f 43f
11:18  -  1 mph 1026.6mb 46f 43f
11:12  -  1 mph 1026.6mb 46f 43f
11:06  -  1 mph 1026.6mb 46f 43f
11:00  -  1 mph 1026.5mb 46f 43f
10:54  -  1 mph 1026.5mb 46f 43f
10:48  -  1 mph 1026.5mb 46f 43f
10:42  -  2 mph 1026.5mb 46f 43f
10:36 2 3 mph 1026.5mb 46f 44f
10:30 1 2 mph 1026.4mb 46f 44f
10:24 1 2 mph 1026.4mb 46f 44f
10:18  -  2 mph 1026.4mb 46f 44f
10:12  -  1 mph 1026.4mb 46f 44f
10:06  -  1 mph 1026.3mb 46f 44f
10:00  -  1 mph 1026.2mb 46f 44f
9:54  -  1 mph 1026.2mb 46f 44f
9:48  -  3 mph 1026.1mb 46f 44f
9:42  -  2 mph 1026.2mb 46f 44f
9:36 2 3 mph 1026.1mb 46f 44f
9:30 2 5 mph 1026.2mb 46f 44f
9:24 3 5 mph 1026.1mb 46f 44f
9:18 2 6 mph 1026mb 46f 45f
9:12  -  1 mph 1026mb 46f 45f
9:06  -  1 mph 1025.9mb 46f 44f
9:00  -  5 mph 1025.9mb 46f 45f
8:54 3 5 mph 1025.8mb 46f 45f
8:48  -  3 mph 1025.8mb 46f 45f
8:42 3 5 mph 1025.8mb 46f 45f
8:36  -  2 mph 1025.8mb 46f 46f
8:30 2 3 mph 1025.8mb 46f 46f
8:24 2 3 mph 1025.8mb 46f 46f
8:18 1 2 mph 1025.8mb 46f 46f
8:12  -  1 mph 1025.7mb 46f 46f
8:06  -  1 mph 1025.7mb 46f 46f
8:00  -  1 mph 1025.6mb 46f 46f
7:54  -  2 mph 1025.5mb 46f 46f
7:48  -  2 mph 1025.4mb 46f 46f
7:42  -  2 mph 1025.4mb 46f 46f
7:36  -  1 mph 1025.4mb 46f 46f
7:30 1 2 mph 1025.3mb 46f 46f
7:24  -  2 mph 1025.4mb 46f 46f
7:18 1 3 mph 1025.4mb 46f 46f
7:12 1 2 mph 1025.4mb 46f 46f
7:06  -  1 mph 1025.5mb 46f 46f
7:00  -  2 mph 1025.5mb 46f 46f
6:54 1 2 mph 1025.5mb 46f 46f
6:48  -  1 mph 1025.4mb 46f 46f
6:42  -  1 mph 1025.4mb 46f 46f
6:36  -  1 mph 1025.3mb 46f 46f
6:30  -  1 mph 1025.3mb 46f 46f
6:24  -  1 mph 1025.4mb 46f 47f
6:18  -  1 mph 1025.5mb 46f 46f
6:12  -  mph 1025.5mb 46f 46f
6:06  -  1 mph 1025.4mb 46f 46f
6:00 1 2 mph 1025.3mb 46f 46f
5:54  -  1 mph 1025.3mb 46f 46f
5:48  -  2 mph 1025.3mb 46f 46f
5:42 1 2 mph 1025.3mb 46f 46f
5:36 1 3 mph 1025.2mb 46f 46f
5:30 2 3 mph 1025.2mb 46f 46f
5:24 1 2 mph 1025.2mb 46f 46f
5:18  -  2 mph 1025.2mb 46f 47f
5:12  -  2 mph 1025.1mb 46f 47f
5:06  -  1 mph 1025.1mb 46f 47f
5:00  -  2 mph 1025.1mb 46f 47f
4:54 1 3 mph 1025.2mb 47f 47f
4:48  -  2 mph 1025.2mb 47f 47f
4:42  -  2 mph 1025.1mb 47f 47f
4:36  -  2 mph 1025.2mb 47f 47f
4:30 1 3 mph 1025.2mb 47f 47f
4:24 1 3 mph 1025.2mb 47f 47f
4:18  -  3 mph 1025.2mb 47f 47f
4:12 1 2 mph 1025.1mb 47f 47f
4:06 1 5 mph 1025.1mb 47f 47f
4:00 2 5 mph 1025.1mb 47f 47f
3:54  -  2 mph 1025mb 47f 47f
3:48  -  2 mph 1025mb 47f 47f
3:42  -  3 mph 1024.9mb 47f 47f
3:36 2 6 mph 1024.8mb 47f 47f
3:30  -  7 mph 1024.9mb 47f 48f
3:24 1 6 mph 1024.8mb 47f 48f
3:18 2 3 mph 1024.8mb 47f 48f
3:12 2
mph
1024.7mb 47f 48f
3:06  -  1 mph 1024.7mb 47f 49f
3:00  -  2 mph 1024.6mb 47f 49f
2:54 1 2 mph 1024.5mb 47f 49f
2:48  -  1 mph 1024.5mb 47f 49f
2:42 2 5 mph 1024.5mb 47f 48f
2:36 3 5 mph 1024.5mb 47f 48f
2:30 1 2 mph 1024.5mb 47f 49f
2:24  -  1 mph 1024.4mb 47f 50f
2:18 1 2 mph 1024.3mb 46f 49f
2:06 2 3 mph 1024.3mb 47f 49f
2:00 1 2 mph 1024.3mb 47f 49f
1:54 2 3 mph 1024.3mb 47f 48f
1:48 2 3 mph 1024.3mb 47f 49f
1:42 2 3 mph 1024.2mb 47f 49f
1:36  -  2 mph 1024.2mb 47f 49f
1:30 2
mph
1024.1mb 47f 48f
1:24  -  2 mph 1024.1mb 47f 49f
1:18 2 3 mph 1024.1mb 47f 49f
1:12 2 5 mph 1024.1mb 47f 48f
1:00  -  1 mph 1024.3mb 47f 49f
12:54  -  1 mph 1024.3mb 47f 48f
12:42  -  1 mph 1024.4mb 46f 48f
12:36  -  1 mph 1024.4mb 46f 48f
12:30 1 2 mph 1024.5mb 46f 48f
12:24 2
mph
1024.5mb 46f 47f
12:18 2 3 mph 1024.5mb 47f 47f
12:12 2 5 mph 1024.5mb 46f 48f
12:06 2 3 mph 1024.4mb 46f 48f
12:00 1 2 mph 1024.5mb 46f 48f
11:54 2
mph
1024.4mb 46f 47f
11:48 2
mph
1024.5mb 46f 47f
11:42 1 2 mph 1024.6mb 46f 47f
11:36  -  2 mph 1024.6mb 46f 47f
11:30 2
mph
1024.5mb 46f 47f
11:24  -  1 mph 1024.5mb 46f 47f
11:18  -  1 mph 1024.5mb 46f 47f
11:12 1 2 mph 1024.6mb 46f 47f
11:06 2
mph
1024.6mb 46f 46f
11:00 2 3 mph 1024.6mb 46f 47f
10:48 2 3 mph 1024.3mb 46f 47f
10:42 1 5 mph 1024.3mb 46f 47f
10:36 5 6 mph 1024.4mb 46f 47f
10:30 3 8 mph 1024.4mb 46f 47f
10:24 6 10 mph 1024.6mb 46f 46f
10:18 1 3 mph 1024.5mb 46f 46f
10:12 2 5 mph 1024.5mb 46f 46f
10:06 3 6 mph 1024.4mb 46f 46f
10:00 3 7 mph 1024.3mb 46f 46f
9:54 3 8 mph 1024.3mb 46f 46f
9:48 6 10 mph 1024.4mb 46f 46f
9:42 5 7 mph 1024.4mb 46f 46f
9:36 5 6 mph 1024.4mb 46f 46f
9:30  -  2 mph 1024.3mb 46f 45f
9:24 1 2 mph 1024.3mb 46f 45f
9:18 2
mph
1024.1mb 46f 44f
9:12 2 3 mph 1024mb 46f 45f
9:06 2
mph
1024mb 46f 45f
9:00 1 3 mph 1024.1mb 46f 45f
8:54 3 6 mph 1024.1mb 46f 45f
8:48 6 7 mph 1024.1mb 46f 45f
8:42 7 9 mph 1024.1mb 46f 45f
8:36 7 9 mph 1024.1mb 46f 45f
8:30 5 6 mph 1023.7mb 46f 45f
8:24 5 6 mph 1023.5mb 46f 45f
8:18 6
mph
1023.4mb 46f 45f
8:12 5
mph
1023.3mb 46f 45f
8:06 1 2 mph 1023.2mb 46f 45f
8:00 1 3 mph 1023.2mb 46f 46f
7:54 2 6 mph 1023.2mb 46f 45f
7:48 5 10 mph 1023.2mb 46f 46f
7:42 8 11 mph 1023.1mb 46f 45f
7:36 9 13 mph 1023.1mb 46f 45f
7:30 11 14 mph 1022.9mb 46f 46f
7:24 10 13 mph 1022.7mb 46f 47f
7:18 8 14 mph 1022.7mb 46f 48f
7:12 10 15 mph 1022.6mb 46f 48f
7:06 10 15 mph 1022.6mb 46f 48f
7:00 11 14 mph 1022.6mb 46f 48f
6:54 6 10 mph 1022.5mb 46f 48f
6:48 9 11 mph 1022.5mb 46f 48f
6:42 9 13 mph 1022.5mb 46f 48f
6:36 9 11 mph 1022.4mb 46f 48f
6:30 9 14 mph 1022.4mb 46f 48f
6:24 11 16 mph 1022.4mb 46f 48f
6:18 14 17 mph 1022.4mb 46f 48f
6:12 14 17 mph 1022.4mb 46f 48f
6:06 13 17 mph 1022.3mb 46f 48f
6:00 10 14 mph 1022.2mb 46f 49f
5:54 10 13 mph 1022mb 46f 48f
5:48 8 13 mph 1022.1mb 46f 48f
5:42 10 14 mph 1022mb 46f 48f
5:36 13 17 mph 1022.1mb 46f 48f
5:30 14 17 mph 1022.1mb 46f 48f
5:24 13 20 mph 1022.2mb 46f 48f
5:18 14 17 mph 1022.1mb 46f 48f
5:12 14 18 mph 1022.1mb 46f 48f
5:06 11 14 mph 1022.1mb 46f 48f
5:00 9 14 mph 1022.1mb 46f 48f
4:54 9 15 mph 1022.1mb 46f 48f
4:48 11 15 mph 1022.1mb 46f 48f
4:42 10 18 mph 1022.1mb 46f 48f
4:36 10 17 mph 1022.1mb 46f 48f
4:30 14 17 mph 1022mb 46f 48f
4:24 13 15 mph 1022mb 46f 48f
4:18 14 18 mph 1021.9mb 46f 48f
4:12 13 18 mph 1021.8mb 46f 49f
4:06 14 18 mph 1021.8mb 46f 49f
4:00 13 16 mph 1021.8mb 46f 48f
3:54 14 17 mph 1021.7mb 46f 49f
3:48 13 16 mph 1021.7mb 46f 49f
3:42 14 21 mph 1021.6mb 46f 49f
3:36 15 22 mph 1021.5mb 46f 49f
3:30 16 21 mph 1021.5mb 46f 49f
3:24 15 21 mph 1021.4mb 46f 49f
3:18 14 20 mph 1021.3mb 46f 49f
3:12 14 20 mph 1021.3mb 46f 49f
3:06 13 22 mph 1021.3mb 46f 49f
3:00 15 21 mph 1021.3mb 46f 49f
2:54 10 16 mph 1021.3mb 46f 49f
2:48 14 16 mph 1021.2mb 46f 49f
2:42 14 18 mph 1021.1mb 46f 49f
2:36 10 13 mph 1021.1mb 46f 49f
2:30 11 16 mph 1021.1mb 46f 49f
2:24 10 14 mph 1021.1mb 46f 48f
2:18 10 14 mph 1021mb 46f 48f
2:12 10 15 mph 1021mb 46f 48f
2:06 11 15 mph 1020.9mb 46f 49f
2:00 8 13 mph 1020.7mb 46f 49f
1:54 9 13 mph 1020.7mb 46f 48f
1:48 9 14 mph 1020.6mb 46f 49f
1:42 11 15 mph 1020.5mb 46f 49f
1:36 9 11 mph 1020.4mb 46f 49f
1:30 9 11 mph 1020.3mb 46f 49f
1:24 9 11 mph 1020.2mb 46f 49f
1:18 8 11 mph 1020.2mb 46f 49f
1:12 7 10 mph 1020.1mb 46f 48f
1:06 9 14 mph 1020mb 46f 49f
1:00 11 15 mph 1020.1mb 46f 49f
12:54 10 16 mph 1020mb 46f 49f
12:48 9 13 mph 1020mb 46f 48f
12:42 9 13 mph 1020mb 46f 48f
12:36 7 10 mph 1019.9mb 46f 48f
12:30 2 8 mph 1019.9mb 46f 47f
12:24 3 6 mph 1019.9mb 46f 46f
12:18 1 5 mph 1019.9mb 46f 46f
12:12 3 5 mph 1020mb 46f 46f
12:06 3 5 mph 1019.9mb 46f 46f
12:00 3 5 mph 1019.9mb 46f 45f
mer. 12/24 11:54 2 6 mph 1019.9mb 46f 45f
11:48 5 11 mph 1019.9mb 46f 45f
11:36 22 26 mph 1020mb 46f 46f
11:30 16 26 mph 1020mb 46f 46f
11:24 15 22 mph 1019.9mb 46f 48f
11:18 10 18 mph 1019.7mb 46f 49f
11:12 10 16 mph 1019.6mb 46f 49f
11:06 9 11 mph 1019.5mb 46f 49f
11:00 8 11 mph 1019.5mb 46f 48f
10:54 9 13 mph 1019.5mb 46f 48f
10:48 8 13 mph 1019.5mb 46f 48f
10:42 11 16 mph 1019.5mb 46f 49f
10:36 9 13 mph 1019.5mb 46f 49f
10:30 7 9 mph 1019.5mb 46f 48f
10:24 7 10 mph 1019.4mb 46f 48f
10:18 7 9 mph 1019.4mb 46f 48f
10:12 7 9 mph 1019.4mb 46f 49f
10:06 7 10 mph 1019.3mb 46f 48f
10:00 8 11 mph 1019.3mb 46f 48f
9:54 9 14 mph 1019.3mb 46f 49f
9:48 7 15 mph 1019.3mb 46f 48f
9:42 6 11 mph 1019.2mb 46f 48f
9:36 7 13 mph 1019.1mb 46f 48f
9:30 6 13 mph 1019.1mb 46f 48f
9:24 7 10 mph 1019.2mb 46f 48f
9:18 3 7 mph 1019.2mb 46f 48f
9:12 3 9 mph 1019.1mb 46f 47f
9:06 5 9 mph 1019.1mb 46f 47f
9:00 5 10 mph 1019mb 46f 47f
8:54 3 9 mph 1019mb 46f 47f
8:48 10 22 mph 1019mb 46f 47f
8:42 13 20 mph 1019mb 46f 47f
8:36 1 3 mph 1018.8mb 46f 46f
8:30 1 5 mph 1018.7mb 46f 46f
8:24 3 16 mph 1018.6mb 46f 46f
8:18 15 20 mph 1018.8mb 46f 47f
8:12 11 21 mph 1018.9mb 46f 46f
8:06 16 23 mph 1018.9mb 46f 46f
8:00 21 25 mph 1018.8mb 46f 47f
7:54 14 17 mph 1018.5mb 46f 48f
7:48 1 5 mph 1018.3mb 46f 46f
7:42 3 7 mph 1018.3mb 47f 46f
7:36 3 6 mph 1018.2mb 47f 46f
7:30 2 6 mph 1018.2mb 47f 45f
7:24 2 6 mph 1018.2mb 47f 45f
7:18 3 5 mph 1018.2mb 47f 44f
7:12 2 3 mph 1018.2mb 47f 44f
7:06 2
mph
1018.2mb 47f 44f
7:00  -  1 mph 1018.2mb 47f 44f
6:54 1 2 mph 1018.1mb 47f 44f
6:48 2 3 mph 1017.9mb 47f 44f
6:42 3
mph
1017.7mb 47f 44f
6:36 1 2 mph 1017.9mb 47f 44f
6:30 1 3 mph 1017.7mb 47f 44f
6:24 2 3 mph 1017.6mb 47f 44f
6:18  -  2 mph 1017.6mb 47f 45f
6:06 3 9 mph 1017.5mb 47f 45f
6:00 3 5 mph 1017.5mb 47f -
5:54 1 3 mph 1017.5mb 47f -
5:48  -  3 mph 1017.4mb 47f 45f
5:36 3 10 mph 1017.4mb 47f 45f
5:30 6 10 mph 1017.4mb 47f 46f
5:24 10 14 mph 1017.3mb 47f 46f
5:18 6 10 mph 1017.2mb 47f 47f
5:00 6 7 mph 1017.1mb 47f 47f
4:54 6 9 mph 1017.1mb 47f 47f
4:48 8 15 mph 1017.1mb 47f 46f
4:42 8 15 mph 1017.1mb 47f 46f
4:36 8 13 mph 1017.1mb 47f 46f
4:30 13 18 mph 1017.3mb 47f 46f
4:18 13 15 mph 1017.3mb 47f 46f
4:12 14 18 mph 1017.3mb 46f 46f
4:06 15 22 mph 1017.2mb 47f 45f
4:00 10 16 mph 1017.3mb 47f 46f
3:54 7 9 mph 1017mb 47f 46f
3:48 8 10 mph 1017mb 47f 46f
3:36 8 10 mph 1016.9mb 47f 46f
3:30 8 15 mph 1016.8mb 47f 46f
3:24 11 22 mph 1016.8mb 47f 46f
3:18 14 21 mph 1016.9mb 47f 46f
3:12 6 13 mph 1016.6mb 47f 47f
3:00 8 13 mph 1016.4mb 47f 46f
2:54 3 7 mph 1016.5mb 47f 46f
2:36 2 13 mph 1016.3mb 47f 46f
2:30 8 14 mph 1016.3mb 47f 46f
2:24 11 16 mph 1016.2mb 46f 46f
2:18 9 14 mph 1016.2mb 46f 46f
2:12 11 18 mph 1016mb 46f 46f
2:06 17 22 mph 1016.1mb 46f 46f
2:00 10 11 mph 1016mb 46f 47f
1:54 7 11 mph 1015.7mb 46f 48f
1:42 10 14 mph 1015.7mb 46f 47f
1:36 11 15 mph 1015.5mb 46f 47f
1:30 13 16 mph 1015.4mb 46f 47f
1:24 10 18 mph 1015.4mb 46f 46f
1:06 5 10 mph 1015.2mb 46f 47f
1:00 7 10 mph 1015.2mb 46f 47f
12:54 5 8 mph 1015.2mb 46f 47f
12:48 5 7 mph 1015.2mb 46f 47f
12:42 2 6 mph 1015.3mb 46f 47f
12:36 3 6 mph 1015.3mb 46f 47f
12:30 5 8 mph 1015.3mb 46f 47f
12:24 2 6 mph 1015.3mb 46f 47f
12:18 1 5 mph 1015.4mb 46f 46f
12:12  -  3 mph 1015.4mb 46f 47f
12:06 2 5 mph 1015.3mb 46f 47f
12:00 2 6 mph 1015.3mb 46f 47f
11:54 3 6 mph 1015.3mb 46f 46f
11:48 5 6 mph 1015.4mb 46f 46f
11:42 3 6 mph 1015.4mb 46f 46f
11:30 1 6 mph 1015.3mb 46f 46f
11:24 3 8 mph 1015.4mb 46f 46f
11:18 2 7 mph 1015.5mb 46f 45f
11:12 2 7 mph 1015.5mb 46f 45f
11:06 3 9 mph 1015.7mb 46f 45f
11:00 1 8 mph 1015.9mb 46f 45f
10:54 2 6 mph 1015.9mb 46f 44f
10:48 3 5 mph 1015.8mb 46f 44f
10:42 5
mph
1015.7mb 46f 44f
10:36 2 3 mph 1015.6mb 46f 44f
10:30 2
mph
1015.6mb 46f 43f
10:24 2 5 mph 1015.6mb 46f 43f
10:18 3 5 mph 1015.6mb 46f 43f
10:12 2 5 mph 1015.5mb 46f 43f
10:06 3 6 mph 1015.5mb 46f 43f
10:00 5 6 mph 1015.5mb 46f 43f
9:54 2 3 mph 1015.7mb 46f 43f
9:48 2 3 mph 1015.4mb 46f 43f
9:42 2 3 mph 1015.4mb 46f 43f
9:36 1 5 mph 1015.4mb 46f 43f
9:30 5
mph
1015.3mb 46f 43f
9:18 1 3 mph 1015.2mb 46f 42f
9:12 2
mph
1015.1mb 46f 42f
9:06  -  2 mph 1015.1mb 46f 42f
9:00 2
mph
1014.9mb 46f 42f
8:54 2
mph
1014.9mb 46f 42f
8:48 2
mph
1014.9mb 46f 42f
8:42 1 2 mph 1015mb 46f 43f
8:36 2 3 mph 1015mb 46f 43f
8:30 2 3 mph 1014.9mb 46f 43f
8:24 2 3 mph 1014.9mb 46f 43f
8:18 3
mph
1014.8mb 46f 43f
8:12 2 7 mph 1014.7mb 46f 44f
8:06 6 7 mph 1014.7mb 46f 44f
8:00 6 7 mph 1014.8mb 46f 44f
7:54 7 10 mph 1014.8mb 46f 44f
7:48 6 10 mph 1014.8mb 46f 44f
7:42 1 6 mph 1014.8mb 46f 44f
7:36 3 6 mph 1014.7mb 46f 43f
7:30 1 2 mph 1014.7mb 46f 43f
7:24  -  2 mph 1014.6mb 46f 42f
7:18 2
mph
1014.6mb 46f 42f
7:12  -  2 mph 1014.5mb 46f 42f
7:06 1 2 mph 1014.5mb 46f 43f
7:00 2
mph
1014.5mb 46f 43f
6:48 2 3 mph 1014.5mb 46f 42f
6:42 2 3 mph 1014.6mb 46f 42f
6:36 2 3 mph 1014.6mb 46f 42f